createdAt,value
2023-02-22T00:00:46.210Z,2.80
2023-02-22T00:03:25.371Z,2.85
2023-02-22T00:06:02.493Z,2.58
2023-02-22T00:08:31.369Z,2.20
2023-02-22T00:10:58.773Z,2.63
2023-02-22T00:13:29.183Z,2.85
2023-02-22T00:16:00.031Z,2.65
2023-02-22T00:18:28.848Z,2.20
2023-02-22T00:21:00.699Z,2.42
2023-02-22T00:23:29.741Z,2.40
2023-02-22T00:25:57.530Z,1.95
2023-02-22T00:28:26.928Z,1.75
2023-02-22T00:30:54.749Z,2.42
2023-02-22T00:33:21.437Z,2.20
2023-02-22T00:35:47.827Z,2.55
2023-02-22T00:38:17.730Z,2.50
2023-02-22T00:40:45.390Z,2.50
2023-02-22T00:43:11.859Z,2.45
2023-02-22T00:45:38.295Z,2.20
2023-02-22T00:48:06.056Z,2.55
2023-02-22T00:50:33.525Z,2.35
2023-02-22T00:53:01.945Z,2.47
2023-02-22T00:55:32.830Z,2.28
2023-02-22T00:58:03.313Z,2.40
2023-02-22T01:00:37.272Z,2.58
2023-02-22T01:03:10.640Z,2.25
2023-02-22T01:05:40.858Z,2.30
2023-02-22T01:08:12.168Z,2.10
2023-02-22T01:10:39.421Z,2.17
2023-02-22T01:13:12.118Z,2.10
2023-02-22T01:15:41.551Z,1.80
2023-02-22T01:18:08.327Z,1.75
2023-02-22T01:20:35.460Z,1.80
2023-02-22T01:23:03.826Z,1.83
2023-02-22T01:25:31.388Z,2.03
2023-02-22T01:27:59.816Z,1.80
2023-02-22T01:30:28.896Z,1.70
2023-02-22T01:32:55.776Z,2.42
2023-02-22T01:35:25.883Z,1.75
2023-02-22T01:37:52.290Z,1.90
2023-02-22T01:40:22.528Z,2.00
2023-02-22T01:42:53.243Z,1.80
2023-02-22T01:45:32.698Z,1.67
2023-02-22T01:48:05.136Z,1.63
2023-02-22T01:50:35.174Z,1.73
2023-02-22T01:53:02.127Z,1.65
2023-02-22T01:55:29.091Z,1.85
2023-02-22T01:57:55.610Z,1.60
2023-02-22T02:00:24.304Z,1.60
2023-02-22T02:03:04.817Z,1.67
2023-02-22T02:05:33.066Z,2.10
2023-02-22T02:08:14.497Z,1.90
2023-02-22T02:10:42.753Z,1.63
2023-02-22T02:13:10.078Z,1.70
2023-02-22T02:15:37.016Z,1.83
2023-02-22T02:18:11.111Z,2.13
2023-02-22T02:20:56.600Z,2.40
2023-02-22T02:23:54.935Z,2.10
2023-02-22T02:26:59.108Z,1.85
2023-02-22T02:29:28.358Z,2.65
2023-02-22T02:32:28.064Z,1.80
2023-02-22T02:35:26.331Z,2.20
2023-02-22T02:38:01.849Z,1.90
2023-02-22T02:40:56.152Z,1.83
2023-02-22T02:43:37.890Z,1.65
2023-02-22T02:46:10.104Z,2.17
2023-02-22T02:48:40.834Z,1.70
2023-02-22T02:51:09.202Z,1.73
2023-02-22T02:53:40.983Z,1.40
2023-02-22T02:56:07.901Z,2.00
2023-02-22T02:58:34.403Z,2.03
2023-02-22T03:01:04.467Z,1.60
2023-02-22T03:03:51.048Z,1.95
2023-02-22T03:06:57.343Z,1.90
2023-02-22T03:09:59.120Z,1.70
2023-02-22T03:12:38.519Z,2.13
2023-02-22T03:15:34.952Z,1.90
2023-02-22T03:18:17.612Z,1.55
2023-02-22T03:21:23.593Z,1.75
2023-02-22T03:23:55.657Z,1.88
2023-02-22T03:26:38.215Z,1.50
2023-02-22T03:29:07.863Z,2.15
2023-02-22T03:31:40.314Z,2.20
2023-02-22T03:34:15.507Z,1.98
2023-02-22T03:36:50.002Z,1.10
2023-02-22T03:39:20.247Z,2.00
2023-02-22T03:41:51.339Z,2.40
2023-02-22T03:44:24.630Z,1.77
2023-02-22T03:46:53.430Z,1.33
2023-02-22T03:49:32.193Z,1.63
2023-02-22T03:51:59.511Z,1.63
2023-02-22T03:54:27.391Z,2.38
2023-02-22T03:57:15.868Z,1.75
2023-02-22T03:59:43.200Z,1.80
2023-02-22T04:02:09.627Z,1.20
2023-02-22T04:04:36.071Z,1.60
2023-02-22T04:07:02.724Z,1.73
2023-02-22T04:09:29.164Z,1.52
2023-02-22T04:11:55.576Z,2.08
2023-02-22T04:14:23.771Z,1.33
2023-02-22T04:16:50.645Z,1.33
2023-02-22T04:19:17.100Z,1.33
2023-02-22T04:21:43.476Z,1.70
2023-02-22T04:24:09.848Z,1.55
2023-02-22T04:26:36.228Z,1.67
2023-02-22T04:29:04.184Z,1.70
2023-02-22T04:31:31.580Z,1.55
2023-02-22T04:33:58.017Z,1.85
2023-02-22T04:36:24.389Z,1.55
2023-02-22T04:38:50.797Z,1.80
2023-02-22T04:41:19.013Z,1.80
2023-02-22T04:43:46.472Z,1.73
2023-02-22T04:46:13.549Z,1.70
2023-02-22T04:48:40.010Z,2.00
2023-02-22T04:51:06.715Z,1.60
2023-02-22T04:53:33.093Z,1.92
2023-02-22T04:55:59.571Z,1.80
2023-02-22T04:58:25.988Z,1.90
2023-02-22T05:00:52.961Z,2.00
2023-02-22T05:03:19.568Z,2.15
2023-02-22T05:05:45.923Z,2.08
2023-02-22T05:08:12.290Z,1.88
2023-02-22T05:10:39.669Z,2.30
2023-02-22T05:13:06.151Z,2.10
2023-02-22T05:15:32.629Z,2.83
2023-02-22T05:17:59.005Z,2.20
2023-02-22T05:20:31.716Z,1.85
2023-02-22T05:22:59.735Z,1.58
2023-02-22T05:25:26.819Z,1.60
2023-02-22T05:27:55.517Z,2.13
2023-02-22T05:30:33.768Z,1.90
2023-02-22T05:33:00.908Z,1.77
2023-02-22T05:35:28.000Z,1.70
2023-02-22T05:37:55.239Z,1.80
2023-02-22T05:40:25.195Z,1.60
2023-02-22T05:42:53.231Z,2.10
2023-02-22T05:45:22.532Z,2.05
2023-02-22T05:47:50.235Z,2.42
2023-02-22T05:50:18.075Z,2.15
2023-02-22T05:52:46.328Z,1.75
2023-02-22T05:55:14.416Z,1.90
2023-02-22T05:57:40.817Z,1.83
2023-02-22T06:00:09.150Z,2.20
2023-02-22T06:02:35.525Z,2.28
2023-02-22T06:05:01.887Z,2.28
2023-02-22T06:07:28.241Z,2.60
2023-02-22T06:09:55.923Z,2.53
2023-02-22T06:12:22.332Z,2.45
2023-02-22T06:14:48.733Z,2.35
2023-02-22T06:17:15.815Z,3.10
2023-02-22T06:19:42.267Z,2.15
2023-02-22T06:22:08.831Z,2.05
2023-02-22T06:24:38.534Z,2.10
2023-02-22T06:27:04.901Z,2.38
2023-02-22T06:29:32.784Z,2.28
2023-02-22T06:31:59.282Z,2.33
2023-02-22T06:34:25.730Z,2.28
2023-02-22T06:36:53.136Z,2.05
2023-02-22T06:39:19.535Z,2.38
2023-02-22T06:41:47.173Z,2.08
2023-02-22T06:44:15.343Z,2.65
2023-02-22T06:46:49.153Z,4.10
2023-02-22T06:49:15.547Z,3.17
2023-02-22T06:51:42.037Z,2.40
2023-02-22T06:54:08.807Z,2.70
2023-02-22T06:56:35.288Z,4.38
2023-02-22T06:59:04.390Z,6.18
2023-02-22T07:01:31.099Z,4.10
2023-02-22T07:03:57.580Z,4.30
2023-02-22T07:06:23.940Z,4.13
2023-02-22T07:08:50.318Z,4.15
2023-02-22T07:11:18.014Z,4.47
2023-02-22T07:13:45.694Z,4.13
2023-02-22T07:16:12.160Z,3.90
2023-02-22T07:18:38.654Z,3.72
2023-02-22T07:21:05.371Z,3.90
2023-02-22T07:23:31.755Z,3.92
2023-02-22T07:26:00.896Z,3.97
2023-02-22T07:28:27.269Z,4.03
2023-02-22T07:30:53.656Z,3.88
2023-02-22T07:33:20.070Z,4.45
2023-02-22T07:35:48.470Z,4.80
2023-02-22T07:38:18.096Z,4.47
2023-02-22T07:40:44.969Z,5.20
2023-02-22T07:43:20.855Z,4.78
2023-02-22T07:45:49.315Z,4.97
2023-02-22T07:48:17.799Z,4.53
2023-02-22T07:50:44.349Z,4.45
2023-02-22T07:53:24.359Z,3.70
2023-02-22T07:55:51.805Z,3.38
2023-02-22T07:58:21.107Z,4.20
2023-02-22T08:00:48.432Z,4.50
2023-02-22T08:03:16.681Z,4.72
2023-02-22T08:05:46.981Z,4.30
2023-02-22T08:08:19.675Z,3.50
2023-02-22T08:10:47.077Z,3.60
2023-02-22T08:13:13.453Z,3.78
2023-02-22T08:15:41.606Z,3.50
2023-02-22T08:18:11.399Z,3.20
2023-02-22T08:20:40.770Z,3.78
2023-02-22T08:23:08.244Z,3.25
2023-02-22T08:25:35.211Z,3.30
2023-02-22T08:28:06.900Z,4.68
2023-02-22T08:30:35.050Z,4.55
2023-02-22T08:33:03.059Z,4.57
2023-02-22T08:35:31.639Z,3.90
2023-02-22T08:38:01.231Z,4.00
2023-02-22T08:40:31.105Z,4.05
2023-02-22T08:42:57.740Z,4.00
2023-02-22T08:45:24.268Z,4.53
2023-02-22T08:47:50.733Z,4.55
2023-02-22T08:50:23.568Z,5.53
2023-02-22T08:52:59.236Z,5.28
2023-02-22T08:55:32.518Z,4.15
2023-02-22T08:58:01.356Z,3.75
2023-02-22T09:00:29.537Z,4.20
2023-02-22T09:02:56.102Z,3.28
2023-02-22T09:05:22.539Z,3.30
2023-02-22T09:07:49.078Z,3.97
2023-02-22T09:10:18.383Z,3.28
2023-02-22T09:12:44.808Z,3.28
2023-02-22T09:15:12.310Z,3.58
2023-02-22T09:17:39.654Z,3.72
2023-02-22T09:20:08.491Z,3.50
2023-02-22T09:22:35.857Z,3.42
2023-02-22T09:25:11.208Z,4.38
2023-02-22T09:27:43.567Z,3.40
2023-02-22T09:30:24.735Z,3.55
2023-02-22T09:32:56.320Z,2.92
2023-02-22T09:35:29.263Z,3.30
2023-02-22T09:37:57.018Z,3.15
2023-02-22T09:40:25.775Z,2.83
2023-02-22T09:43:14.053Z,3.15
2023-02-22T09:45:45.045Z,2.85
2023-02-22T09:48:21.742Z,2.92
2023-02-22T09:50:51.657Z,2.67
2023-02-22T09:53:31.612Z,3.10
2023-02-22T09:56:06.831Z,2.53
2023-02-22T09:58:36.760Z,2.60
2023-02-22T10:01:14.431Z,2.63
2023-02-22T10:04:14.034Z,3.08
2023-02-22T10:06:52.528Z,2.72
2023-02-22T10:09:19.019Z,2.53
2023-02-22T10:12:09.750Z,2.65
2023-02-22T10:15:07.205Z,2.65
2023-02-22T10:20:28.540Z,2.33
2023-02-22T10:23:19.787Z,2.40
2023-02-22T10:25:55.712Z,2.63
2023-02-22T10:28:39.090Z,2.90
2023-02-22T10:31:15.737Z,2.72
2023-02-22T10:33:47.707Z,2.80
2023-02-22T10:36:23.707Z,2.60
2023-02-22T10:39:30.642Z,2.28
2023-02-22T10:42:05.848Z,2.50
2023-02-22T10:44:37.475Z,2.63
2023-02-22T10:47:08.111Z,3.67
2023-02-22T10:49:39.821Z,2.40
2023-02-22T10:52:22.011Z,2.42
2023-02-22T10:54:51.832Z,2.53
2023-02-22T10:57:25.613Z,2.85
2023-02-22T10:59:52.494Z,2.78
2023-02-22T11:02:24.657Z,2.70
2023-02-22T11:04:54.143Z,2.47
2023-02-22T11:07:38.649Z,4.10
2023-02-22T11:10:09.521Z,2.70
2023-02-22T11:12:48.481Z,2.95
2023-02-22T11:15:17.593Z,3.35
2023-02-22T11:17:46.294Z,2.83
2023-02-22T11:20:25.254Z,3.00
2023-02-22T11:22:58.322Z,6.95
2023-02-22T11:25:30.343Z,3.10
2023-02-22T11:28:08.268Z,3.40
2023-02-22T11:30:36.098Z,3.47
2023-02-22T11:33:24.464Z,3.10
2023-02-22T11:35:52.889Z,3.30
2023-02-22T11:38:40.353Z,3.67
2023-02-22T11:41:15.248Z,3.10
2023-02-22T11:43:43.525Z,3.70
2023-02-22T11:46:13.905Z,3.22
2023-02-22T11:48:53.880Z,2.80
2023-02-22T11:51:57.249Z,3.30
2023-02-22T11:54:47.422Z,3.47
2023-02-22T11:57:30.336Z,3.78
2023-02-22T12:00:16.173Z,3.80
2023-02-22T12:03:26.500Z,4.20
2023-02-22T12:06:06.615Z,3.97
2023-02-22T12:09:02.795Z,3.90
2023-02-22T12:11:40.469Z,4.22
2023-02-22T12:14:12.901Z,6.07
2023-02-22T12:16:54.803Z,3.80
2023-02-22T12:19:30.899Z,4.72
2023-02-22T12:22:02.293Z,6.88
2023-02-22T12:25:00.761Z,4.60
2023-02-22T12:27:41.048Z,4.47
2023-02-22T12:30:36.289Z,4.20
2023-02-22T12:33:14.056Z,4.50
2023-02-22T12:35:46.114Z,4.10
2023-02-22T12:38:23.412Z,4.40
2023-02-22T12:41:03.951Z,4.32
2023-02-22T12:43:38.911Z,5.47
2023-02-22T12:46:13.587Z,6.93
2023-02-22T12:48:54.257Z,5.30
2023-02-22T12:51:51.573Z,4.28
2023-02-22T12:54:46.429Z,5.20
2023-02-22T12:57:36.148Z,5.20
2023-02-22T13:00:17.129Z,6.28
2023-02-22T13:02:45.448Z,7.70
2023-02-22T13:05:17.869Z,5.65
2023-02-22T13:07:59.313Z,6.22
2023-02-22T13:10:53.632Z,6.75
2023-02-22T13:13:33.348Z,8.13
2023-02-22T13:16:21.735Z,7.15
2023-02-22T13:19:07.951Z,7.15
2023-02-22T13:21:55.453Z,6.43
2023-02-22T13:24:30.291Z,6.80
2023-02-22T13:27:01.779Z,6.78
2023-02-22T13:29:47.254Z,7.32
2023-02-22T13:32:28.696Z,7.10
2023-02-22T13:35:20.968Z,7.95
2023-02-22T13:37:59.627Z,7.28
2023-02-22T13:40:42.462Z,7.65
2023-02-22T13:43:42.409Z,7.95
2023-02-22T13:46:19.030Z,8.40
2023-02-22T13:49:10.575Z,8.50
2023-02-22T13:51:52.668Z,8.27
2023-02-22T13:54:44.943Z,9.45
2023-02-22T13:57:20.861Z,9.00
2023-02-22T13:59:47.404Z,9.32
2023-02-22T14:02:52.491Z,9.75
2023-02-22T14:05:41.521Z,9.23
2023-02-22T14:08:27.842Z,10.00
2023-02-22T14:10:56.334Z,8.70
2023-02-22T14:13:27.552Z,8.32
2023-02-22T14:16:19.198Z,7.30
2023-02-22T14:19:00.002Z,7.55
2023-02-22T14:21:26.566Z,6.82
2023-02-22T14:23:54.279Z,7.45
2023-02-22T14:26:31.158Z,7.88
2023-02-22T14:29:07.786Z,7.25
2023-02-22T14:31:40.477Z,6.95
2023-02-22T14:34:17.487Z,6.50
2023-02-22T14:36:56.232Z,6.75
2023-02-22T14:39:51.006Z,6.97
2023-02-22T14:42:34.500Z,7.30
2023-02-22T14:45:26.907Z,6.57
2023-02-22T14:48:20.329Z,7.88
2023-02-22T14:51:29.101Z,7.80
2023-02-22T14:54:18.637Z,8.30
2023-02-22T14:57:00.505Z,7.95
2023-02-22T14:59:30.749Z,7.72
2023-02-22T15:02:12.440Z,7.70
2023-02-22T15:04:43.764Z,7.20
2023-02-22T15:07:27.910Z,6.78
2023-02-22T15:10:17.782Z,7.32
2023-02-22T15:13:08.536Z,7.10
2023-02-22T15:15:40.854Z,7.57
2023-02-22T15:18:17.674Z,7.88
2023-02-22T15:20:48.302Z,7.05
2023-02-22T15:23:16.704Z,5.95
2023-02-22T15:25:49.451Z,6.30
2023-02-22T15:28:18.536Z,6.95
2023-02-22T15:30:45.066Z,5.88
2023-02-22T15:33:24.683Z,5.22
2023-02-22T15:35:55.989Z,5.50
2023-02-22T15:38:28.889Z,6.00
2023-02-22T15:41:13.548Z,6.85
2023-02-22T15:43:41.019Z,5.68
2023-02-22T15:46:09.445Z,5.75
2023-02-22T15:48:37.229Z,6.22
2023-02-22T15:51:09.856Z,6.30
2023-02-22T15:53:42.105Z,6.90
2023-02-22T15:56:25.743Z,9.18
2023-02-22T15:59:15.183Z,7.40
2023-02-22T16:01:45.033Z,8.75
2023-02-22T16:04:21.060Z,8.23
2023-02-22T16:06:52.102Z,7.50
2023-02-22T16:09:30.285Z,7.72
2023-02-22T16:12:28.130Z,7.10
2023-02-22T16:14:59.568Z,7.72
2023-02-22T16:17:49.485Z,6.72
2023-02-22T16:20:22.894Z,6.07
2023-02-22T16:22:49.772Z,6.82
2023-02-22T16:25:19.146Z,7.80
2023-02-22T16:27:49.409Z,8.43
2023-02-22T16:30:25.264Z,7.90
2023-02-22T16:32:56.397Z,7.20
2023-02-22T16:35:28.735Z,7.05
2023-02-22T16:38:05.791Z,7.05
2023-02-22T16:40:39.671Z,7.45
2023-02-22T16:43:16.975Z,6.82
2023-02-22T16:45:46.255Z,9.73
2023-02-22T16:48:33.229Z,7.18
2023-02-22T16:53:38.644Z,7.30
2023-02-22T16:58:39.220Z,9.07
2023-02-22T17:01:05.999Z,9.77
2023-02-22T17:03:32.416Z,10.52
2023-02-22T17:06:01.215Z,10.50
2023-02-22T17:08:30.591Z,10.43
2023-02-22T17:11:00.608Z,10.18
2023-02-22T17:13:27.938Z,9.55
2023-02-22T17:15:55.276Z,9.80
2023-02-22T17:18:23.935Z,9.48
2023-02-22T17:20:51.810Z,7.88
2023-02-22T17:23:20.121Z,8.40
2023-02-22T17:25:59.201Z,8.43
2023-02-22T17:28:26.855Z,8.02
2023-02-22T17:30:55.190Z,7.85
2023-02-22T17:33:27.074Z,9.32
2023-02-22T17:35:55.637Z,8.52
2023-02-22T17:38:22.819Z,9.20
2023-02-22T17:40:51.926Z,8.82
2023-02-22T17:43:19.364Z,9.07
2023-02-22T17:45:46.655Z,9.60
2023-02-22T17:48:14.737Z,9.32
2023-02-22T17:50:43.584Z,10.25
2023-02-22T17:53:13.286Z,10.75
2023-02-22T17:55:41.985Z,10.52
2023-02-22T17:58:14.545Z,11.43
2023-02-22T18:00:46.407Z,10.75
2023-02-22T18:03:21.410Z,10.63
2023-02-22T18:05:50.715Z,11.15
2023-02-22T18:08:17.203Z,10.90
2023-02-22T18:10:44.718Z,12.55
2023-02-22T18:13:19.250Z,12.13
2023-02-22T18:15:46.358Z,10.77
2023-02-22T18:18:13.154Z,12.02
2023-02-22T18:20:46.392Z,12.88
2023-02-22T18:23:16.755Z,12.10
2023-02-22T18:26:00.272Z,12.68
2023-02-22T18:28:35.321Z,11.77
2023-02-22T18:31:07.555Z,10.95
2023-02-22T18:33:35.419Z,11.25
2023-02-22T18:36:01.839Z,12.57
2023-02-22T18:38:28.214Z,11.55
2023-02-22T18:41:02.515Z,12.85
2023-02-22T18:43:36.854Z,10.63
2023-02-22T18:46:18.203Z,11.35
2023-02-22T18:48:47.751Z,12.18
2023-02-22T18:51:16.988Z,13.27
2023-02-22T18:53:47.068Z,13.93
2023-02-22T18:56:17.853Z,13.70
2023-02-22T18:58:44.543Z,14.30
2023-02-22T19:01:18.547Z,14.30
2023-02-22T19:03:47.146Z,15.02
2023-02-22T19:06:16.570Z,14.48
2023-02-22T19:08:43.579Z,14.32
2023-02-22T19:11:17.589Z,14.48
2023-02-22T19:13:48.299Z,13.65
2023-02-22T19:16:19.708Z,14.13
2023-02-22T19:18:52.514Z,16.10
2023-02-22T19:21:23.061Z,17.50
2023-02-22T19:23:50.364Z,14.82
2023-02-22T19:26:19.984Z,15.73
2023-02-22T19:28:47.294Z,14.27
2023-02-22T19:31:14.802Z,14.73
2023-02-22T19:33:42.531Z,14.63
2023-02-22T19:36:10.214Z,16.27
2023-02-22T19:38:36.967Z,15.70
2023-02-22T19:41:12.405Z,15.02
2023-02-22T19:43:39.072Z,16.00
2023-02-22T19:46:06.761Z,14.57
2023-02-22T19:48:33.803Z,14.07
2023-02-22T19:51:06.187Z,13.15
2023-02-22T19:53:34.111Z,13.05
2023-02-22T19:56:09.495Z,14.02
2023-02-22T19:58:37.690Z,11.55
2023-02-22T20:01:16.088Z,11.52
2023-02-22T20:03:42.818Z,13.10
2023-02-22T20:06:15.900Z,12.68
2023-02-22T20:08:42.419Z,13.00
2023-02-22T20:11:10.477Z,14.43
2023-02-22T20:13:38.422Z,13.27
2023-02-22T20:16:05.420Z,12.90
2023-02-22T20:18:33.056Z,12.52
2023-02-22T20:20:59.608Z,12.65
2023-02-22T20:23:27.096Z,11.80
2023-02-22T20:25:55.513Z,11.15
2023-02-22T20:28:23.712Z,12.10
2023-02-22T20:30:51.545Z,14.02
2023-02-22T20:33:19.036Z,13.20
2023-02-22T20:35:46.695Z,12.98
2023-02-22T20:38:14.476Z,13.60
2023-02-22T20:40:42.528Z,13.95
2023-02-22T20:43:09.719Z,13.35
2023-02-22T20:45:39.677Z,12.93
2023-02-22T20:48:06.213Z,12.95
2023-02-22T20:50:34.917Z,12.85
2023-02-22T20:53:01.370Z,13.55
2023-02-22T20:55:27.732Z,12.63
2023-02-22T20:57:54.169Z,13.07
2023-02-22T21:00:20.662Z,12.93
2023-02-22T21:02:47.079Z,12.00
2023-02-22T21:05:13.901Z,12.38
2023-02-22T21:07:40.424Z,12.18
2023-02-22T21:10:07.124Z,13.75
2023-02-22T21:12:35.055Z,12.35
2023-02-22T21:15:01.751Z,12.77
2023-02-22T21:17:30.964Z,12.73
2023-02-22T21:19:58.367Z,12.60
2023-02-22T21:22:25.218Z,13.07
2023-02-22T21:24:51.948Z,12.52
2023-02-22T21:27:18.311Z,13.15
2023-02-22T21:29:44.707Z,13.40
2023-02-22T21:32:12.700Z,14.57
2023-02-22T21:34:39.377Z,14.10
2023-02-22T21:37:08.207Z,14.85
2023-02-22T21:39:35.308Z,14.48
2023-02-22T21:42:02.395Z,14.77
2023-02-22T21:44:29.408Z,13.15
2023-02-22T21:46:57.273Z,14.68
2023-02-22T21:49:23.781Z,15.18
2023-02-22T21:51:51.644Z,15.18
2023-02-22T21:54:19.121Z,13.30
2023-02-22T21:56:45.727Z,13.45
2023-02-22T21:59:15.413Z,13.98
2023-02-22T22:01:47.682Z,13.90
2023-02-22T22:04:18.805Z,14.55
2023-02-22T22:06:47.751Z,14.55
2023-02-22T22:09:18.260Z,14.63
2023-02-22T22:11:46.481Z,16.30
2023-02-22T22:14:13.567Z,16.08
2023-02-22T22:16:40.254Z,15.32
2023-02-22T22:19:07.099Z,16.50
2023-02-22T22:21:33.606Z,16.05
2023-02-22T22:24:00.494Z,14.63
2023-02-22T22:26:27.359Z,14.68
2023-02-22T22:28:57.796Z,15.48
2023-02-22T22:31:25.932Z,15.40
2023-02-22T22:33:54.307Z,16.10
2023-02-22T22:36:22.459Z,15.45
2023-02-22T22:38:50.322Z,16.40
2023-02-22T22:41:19.667Z,16.35
2023-02-22T22:43:46.736Z,14.88
2023-02-22T22:46:17.800Z,16.05
2023-02-22T22:48:46.916Z,15.57
2023-02-22T22:51:21.660Z,15.80
2023-02-22T22:53:49.649Z,15.02
2023-02-22T22:56:21.655Z,15.30
2023-02-22T22:58:54.797Z,15.55
2023-02-22T23:01:27.816Z,15.45
2023-02-22T23:04:01.314Z,15.23
2023-02-22T23:06:32.705Z,14.90
2023-02-22T23:09:13.150Z,15.55
2023-02-22T23:11:45.898Z,14.55
2023-02-22T23:14:20.763Z,14.88
2023-02-22T23:16:52.539Z,14.25
2023-02-22T23:19:19.650Z,15.05
2023-02-22T23:21:48.663Z,16.13
2023-02-22T23:24:17.598Z,14.52
2023-02-22T23:26:48.711Z,15.10
2023-02-22T23:29:20.129Z,14.23
2023-02-22T23:31:48.516Z,16.13
2023-02-22T23:34:17.245Z,15.05
2023-02-22T23:36:49.573Z,15.80
2023-02-22T23:39:21.816Z,14.90
2023-02-22T23:41:59.128Z,14.85
2023-02-22T23:44:27.107Z,14.68
2023-02-22T23:46:55.621Z,15.13
2023-02-22T23:49:25.082Z,14.02
2023-02-22T23:51:52.537Z,12.73
2023-02-22T23:54:20.902Z,14.55
2023-02-22T23:56:57.681Z,13.38
2023-02-22T23:59:27.227Z,12.20
